Woodside Donaldson — 9V8262 — position and weather

sailwx.info

Track history (hours):
 
Tides and Currents Weather Stations Pressure Air Temp Water Temp Dewpoint Dewpoint Depression Visibility Wind Speed Wind Dir Waves Ship Positions

Woodside Donaldson

Last reported at 2018-May-27 03:44 UTC. Time now 2018-Jun-18 17:14 UTC.
Position N 34°45' E 139°43'.
Warning: this ship's position is 22 days out of date.

Length 286 m; draft 9.4 m.

Type: Tanker. MMSI: 564629000.

Date/timePositionNaut miles runAvg speedWind from/ knotsBaromVisibWave heightAir tempDewpointWater temp
2018-May-27 03:44N 34°45' E 139°43'518.6
2018-May-27 03:28N 34°49' E 139°42'817.3
2018-May-27 03:00N 34°57' E 139°40'815.2
2018-May-27 02:30N 35°04' E 139°43'714.0
2018-May-27 02:00N 35°11' E 139°46'511.0
2018-May-27 01:31N 35°17' E 139°45'713.1
2018-May-27 01:00N 35°23' E 139°42'5 9.4
2018-May-27 00:31N 35°24' E 139°48'3 6.7
2018-May-27 00:01N 35°21' E 139°49'0 0.3
2018-May-26 23:30N 35°21' E 139°49'0 0.0
2018-May-26 23:00N 35°21' E 139°49'0 0.0
2018-May-26 22:30N 35°21' E 139°49'0 0.0
2018-May-26 21:57N 35°21' E 139°49'0 0.0
2018-May-26 21:30N 35°21' E 139°49'0 0.0
2018-May-26 21:00N 35°21' E 139°49'0 0.0
2018-May-26 20:30N 35°21' E 139°49'0 0.0
2018-May-26 20:00N 35°21' E 139°49'0 0.0
2018-May-26 19:30N 35°21' E 139°49'0 0.0
2018-May-26 19:00N 35°21' E 139°49'0 0.0
2018-May-26 18:30N 35°21' E 139°49'0 0.0
2018-May-26 18:00N 35°21' E 139°49'0 0.0
2018-May-26 17:30N 35°21' E 139°49'0 0.0
2018-May-26 17:00N 35°21' E 139°49'0 0.0
2018-May-26 16:30N 35°21' E 139°49'0 0.0
2018-May-26 16:00N 35°21' E 139°49'0 0.0
2018-May-26 15:30N 35°21' E 139°49'0 0.0
2018-May-26 15:00N 35°21' E 139°49'0 0.0
2018-May-26 14:30N 35°21' E 139°49'0 0.0
2018-May-26 14:00N 35°21' E 139°49'0 0.0
2018-May-26 13:30N 35°21' E 139°49'0 0.0
2018-May-26 13:00N 35°21' E 139°49'0 0.0
2018-May-26 12:30N 35°21' E 139°49'0 0.0
2018-May-26 12:00N 35°21' E 139°49'0 0.0
2018-May-26 11:30N 35°21' E 139°49'0 0.0
2018-May-26 11:00N 35°21' E 139°49'0 0.0
2018-May-26 10:30N 35°21' E 139°49'0 0.0
2018-May-26 09:57N 35°21' E 139°49'0 0.0
2018-May-26 09:27N 35°21' E 139°49'0 0.0
2018-May-26 09:00N 35°21' E 139°49'0 0.0
2018-May-26 08:30N 35°21' E 139°49'0 0.0
2018-May-26 07:57N 35°21' E 139°49'0 0.0
2018-May-26 07:30N 35°21' E 139°49'0 0.0
2018-May-26 07:00N 35°21' E 139°49'0 0.0
2018-May-26 06:30N 35°21' E 139°49'0 0.0
2018-May-26 05:30N 35°21' E 139°49'0 0.0
2018-May-26 05:00N 35°21' E 139°49'0 0.0
2018-May-26 04:30N 35°21' E 139°49'0 0.0
2018-May-26 04:00N 35°21' E 139°49'0 0.0
2018-May-26 03:30N 35°21' E 139°49'0 0.0
2018-May-26 03:00N 35°21' E 139°49'0 0.0
2018-May-26 02:30N 35°21' E 139°49'0 0.0
2018-May-26 01:57N 35°21' E 139°49'0 0.0
2018-May-26 01:30N 35°21' E 139°49'0 0.0
2018-May-26 01:00N 35°21' E 139°49'0 0.0
2018-May-26 00:30N 35°21' E 139°49'0 0.1
2018-May-26 00:00N 35°21' E 139°49'1 1.6
2018-May-25 23:30N 35°21' E 139°49'2 4.8
2018-May-25 23:00N 35°23' E 139°46'4 7.2
2018-May-25 22:30N 35°20' E 139°44'611.1
2018-May-25 22:00N 35°15' E 139°47'510.5
2018-May-25 21:30N 35°09' E 139°46'4 8.2
2018-May-25 21:00N 35°05' E 139°45'3 6.7
2018-May-25 20:30N 35°02' E 139°43'611.7
2018-May-25 20:00N 34°56' E 139°42'511.0
2018-May-25 19:30N 34°51' E 139°43'510.4
2018-May-25 19:00N 34°46' E 139°44'610.6
2018-May-25 18:28N 34°41' E 139°47'510.7
2018-May-25 17:59N 34°36' E 139°49'  
Track history (hours):
 
Tides and Currents Weather Stations Pressure Air Temp Water Temp Dewpoint Dewpoint Depression Visibility Wind Speed Wind Dir Waves Ship Positions

Woodside Donaldson

Last reported at 2018-May-27 03:44 UTC. Time now 2018-Jun-18 17:14 UTC.
Position N 34°45' E 139°43'.
Warning: this ship's position is 22 days out of date.

Length 286 m; draft 9.4 m.

Type: Tanker. MMSI: 564629000.

Date/timePositionNaut miles runAvg speedWind from/ knotsBaromVisibWave heightAir tempDewpointWater temp
2018-May-27 03:44N 34°45' E 139°43'518.6
2018-May-27 03:28N 34°49' E 139°42'817.3
2018-May-27 03:00N 34°57' E 139°40'815.2
2018-May-27 02:30N 35°04' E 139°43'714.0
2018-May-27 02:00N 35°11' E 139°46'511.0
2018-May-27 01:31N 35°17' E 139°45'713.1
2018-May-27 01:00N 35°23' E 139°42'5 9.4
2018-May-27 00:31N 35°24' E 139°48'3 6.7
2018-May-27 00:01N 35°21' E 139°49'0 0.3
2018-May-26 23:30N 35°21' E 139°49'0 0.0
2018-May-26 23:00N 35°21' E 139°49'0 0.0
2018-May-26 22:30N 35°21' E 139°49'0 0.0
2018-May-26 21:57N 35°21' E 139°49'0 0.0
2018-May-26 21:30N 35°21' E 139°49'0 0.0
2018-May-26 21:00N 35°21' E 139°49'0 0.0
2018-May-26 20:30N 35°21' E 139°49'0 0.0
2018-May-26 20:00N 35°21' E 139°49'0 0.0
2018-May-26 19:30N 35°21' E 139°49'0 0.0
2018-May-26 19:00N 35°21' E 139°49'0 0.0
2018-May-26 18:30N 35°21' E 139°49'0 0.0
2018-May-26 18:00N 35°21' E 139°49'0 0.0
2018-May-26 17:30N 35°21' E 139°49'0 0.0
2018-May-26 17:00N 35°21' E 139°49'0 0.0
2018-May-26 16:30N 35°21' E 139°49'0 0.0
2018-May-26 16:00N 35°21' E 139°49'0 0.0
2018-May-26 15:30N 35°21' E 139°49'0 0.0
2018-May-26 15:00N 35°21' E 139°49'0 0.0
2018-May-26 14:30N 35°21' E 139°49'0 0.0
2018-May-26 14:00N 35°21' E 139°49'0 0.0
2018-May-26 13:30N 35°21' E 139°49'0 0.0
2018-May-26 13:00N 35°21' E 139°49'0 0.0
2018-May-26 12:30N 35°21' E 139°49'0 0.0
2018-May-26 12:00N 35°21' E 139°49'0 0.0
2018-May-26 11:30N 35°21' E 139°49'0 0.0
2018-May-26 11:00N 35°21' E 139°49'0 0.0
2018-May-26 10:30N 35°21' E 139°49'0 0.0
2018-May-26 09:57N 35°21' E 139°49'0 0.0
2018-May-26 09:27N 35°21' E 139°49'0 0.0
2018-May-26 09:00N 35°21' E 139°49'0 0.0
2018-May-26 08:30N 35°21' E 139°49'0 0.0
2018-May-26 07:57N 35°21' E 139°49'0 0.0
2018-May-26 07:30N 35°21' E 139°49'0 0.0
2018-May-26 07:00N 35°21' E 139°49'0 0.0
2018-May-26 06:30N 35°21' E 139°49'0 0.0
2018-May-26 05:30N 35°21' E 139°49'0 0.0
2018-May-26 05:00N 35°21' E 139°49'0 0.0
2018-May-26 04:30N 35°21' E 139°49'0 0.0
2018-May-26 04:00N 35°21' E 139°49'0 0.0
2018-May-26 03:30N 35°21' E 139°49'0 0.0
2018-May-26 03:00N 35°21' E 139°49'0 0.0
2018-May-26 02:30N 35°21' E 139°49'0 0.0
2018-May-26 01:57N 35°21' E 139°49'0 0.0
2018-May-26 01:30N 35°21' E 139°49'0 0.0
2018-May-26 01:00N 35°21' E 139°49'0 0.0
2018-May-26 00:30N 35°21' E 139°49'0 0.1
2018-May-26 00:00N 35°21' E 139°49'1 1.6
2018-May-25 23:30N 35°21' E 139°49'2 4.8
2018-May-25 23:00N 35°23' E 139°46'4 7.2
2018-May-25 22:30N 35°20' E 139°44'611.1
2018-May-25 22:00N 35°15' E 139°47'510.5
2018-May-25 21:30N 35°09' E 139°46'4 8.2
2018-May-25 21:00N 35°05' E 139°45'3 6.7
2018-May-25 20:30N 35°02' E 139°43'611.7
2018-May-25 20:00N 34°56' E 139°42'511.0
2018-May-25 19:30N 34°51' E 139°43'510.4
2018-May-25 19:00N 34°46' E 139°44'610.6
2018-May-25 18:28N 34°41' E 139°47'510.7
2018-May-25 17:59N 34°36' E 139°49'  

Dump ship's entire track history